Time;durP1;ratioP1;P1;durP2;ratioP2;P2;SDS_P1;SDS_P2;PMS_P1;PMS_P2;Temp;Humidity;BMP_temperature;BMP_pressure;BME280_temperature;BME280_humidity;BME280_pressure;Samples;Min_cycle;Max_cycle;Signal;HPM_P1;HPM_P2
2023/11/07 00:01:43;;;;;;;;;51.50;43.50;;;;;7.75;100.00;99476.47;6311521;20;2851434;-38
2023/11/07 00:04:12;;;;;;;;;56.50;44.50;;;;;7.66;100.00;99472.44;6282422;20;2855529;-38
2023/11/07 00:06:41;;;;;;;;;52.00;44.50;;;;;7.86;100.00;99468.72;6280006;20;2849282;-46
2023/11/07 00:09:10;;;;;;;;;57.00;45.50;;;;;7.51;100.00;99463.47;6279871;20;2853410;-48
2023/11/07 00:11:40;;;;;;;;;51.67;43.33;;;;;7.48;100.00;99463.63;6282967;20;3623371;-37
2023/11/07 00:14:10;;;;;;;;;55.33;44.33;;;;;7.30;100.00;99459.25;6313930;20;2861762;-38
2023/11/07 00:16:40;;;;;;;;;56.33;43.00;;;;;7.77;100.00;99469.25;6314700;20;3621222;-39
2023/11/07 00:19:10;;;;;;;;;47.33;37.67;;;;;8.02;100.00;99468.75;6311830;20;2873403;-39
2023/11/07 00:21:38;;;;;;;;;52.00;43.00;;;;;8.05;100.00;99469.44;6308834;20;2495075;-39
2023/11/07 00:24:08;;;;;;;;;41.33;36.00;;;;;8.41;100.00;99475.56;6282596;20;2865078;-48
2023/11/07 00:26:36;;;;;;;;;15.50;5.00;;;;;8.05;100.00;99469.44;6312063;20;2785672;-41
2023/11/07 00:29:04;;;;;;;;;26.00;22.00;;;;;7.55;100.00;99461.47;6279823;20;2491959;-38
2023/11/07 00:31:34;;;;;;;;;40.00;34.67;;;;;7.64;100.00;99469.88;6279940;20;2852445;-40
2023/11/07 00:34:05;;;;;;;;;50.00;39.00;;;;;7.25;100.00;99479.03;6312647;20;2856674;-39
2023/11/07 00:36:35;;;;;;;;;53.33;42.00;;;;;7.04;100.00;99477.44;6280586;20;3622161;-49
2023/11/07 00:39:06;;;;;;;;;45.33;38.33;;;;;6.71;100.00;99472.84;6316549;20;3596134;-40
2023/11/07 00:41:35;;;;;;;;;43.50;40.00;;;;;6.81;100.00;99482.13;6279272;20;2857549;-41
2023/11/07 00:44:06;;;;;;;;;48.00;39.33;;;;;7.35;100.00;99478.56;6279580;20;2854516;-39
2023/11/07 00:46:35;;;;;;;;;42.33;37.67;;;;;7.48;100.00;99479.66;6312023;20;3594085;-49
2023/11/07 00:49:05;;;;;;;;;47.00;34.67;;;;;6.96;100.00;99466.28;6278231;20;3633026;-38
2023/11/07 00:51:35;;;;;;;;;49.00;39.33;;;;;7.38;100.00;99473.06;6311179;20;2851349;-40
2023/11/07 00:54:04;;;;;;;;;44.00;34.33;;;;;7.17;100.00;99478.56;6314878;20;3618081;-40
2023/11/07 00:56:34;;;;;;;;;41.00;34.67;;;;;7.53;100.00;99482.94;6280079;20;2867183;-48
2023/11/07 00:59:04;;;;;;;;;41.33;33.33;;;;;7.46;100.00;99481.53;6310113;20;2863973;-46
2023/11/07 01:01:33;;;;;;;;;42.67;34.67;;;;;7.25;100.00;99483.50;6314069;20;3615913;-38
2023/11/07 01:04:03;;;;;;;;;40.33;36.33;;;;;7.32;100.00;99484.03;6281339;20;2860715;-39
2023/11/07 01:06:32;;;;;;;;;38.33;34.67;;;;;7.16;100.00;99476.84;6310775;20;3602318;-40
2023/11/07 01:09:03;;;;;;;;;39.50;36.00;;;;;7.38;100.00;99476.59;6279823;20;2859626;-48
2023/11/07 01:11:32;;;;;;;;;19.33;16.33;;;;;7.32;100.00;99484.94;6280824;20;3548233;-50
2023/11/07 01:14:02;;;;;;;;;37.00;32.33;;;;;7.65;100.00;99484.09;6313755;20;3601320;-49
2023/11/07 01:16:30;;;;;;;;;40.00;36.00;;;;;7.50;100.00;99485.75;6276463;20;2857538;-43
2023/11/07 01:18:58;;;;;;;;;25.00;23.50;;;;;7.61;100.00;99480.72;6278729;20;2500282;-43
2023/11/07 01:21:28;;;;;;;;;33.33;25.67;;;;;7.78;100.00;99484.31;6277828;20;3614926;-45
2023/11/07 01:23:57;;;;;;;;;29.33;25.33;;;;;7.87;100.00;99483.81;6313484;20;3598174;-49
2023/11/07 01:26:26;;;;;;;;;28.50;25.50;;;;;7.48;100.00;99468.97;6281984;20;2845025;-47
2023/11/07 01:28:55;;;;;;;;;36.00;33.00;;;;;7.62;100.00;99469.09;6277358;20;2861913;-50
2023/11/07 01:31:25;;;;;;;;;42.00;33.67;;;;;7.66;100.00;99472.44;6309868;20;2867089;-38
2023/11/07 01:33:54;;;;;;;;;44.33;37.33;;;;;7.53;100.00;99472.25;6311359;20;3606015;-47
2023/11/07 01:36:24;;;;;;;;;45.67;36.00;;;;;7.36;100.00;99475.78;6281982;20;3612877;-46
2023/11/07 01:38:54;;;;;;;;;47.67;39.67;;;;;7.50;100.00;99480.41;6309651;20;2876070;-39
2023/11/07 01:41:24;;;;;;;;;45.67;39.67;;;;;7.28;100.00;99482.47;6304390;20;2848244;-49
2023/11/07 01:43:53;;;;;;;;;42.33;37.67;;;;;7.52;100.00;99483.88;6311398;20;3602426;-45
2023/11/07 01:46:22;;;;;;;;;47.00;38.00;;;;;7.52;100.00;99475.84;6272618;20;2491939;-50
2023/11/07 01:48:54;;;;;;;;;40.00;35.00;;;;;7.68;100.00;99481.25;6275682;20;2862796;-51
2023/11/07 01:51:24;;;;;;;;;40.67;36.33;;;;;8.00;100.00;99479.53;6308664;20;3597127;-49
2023/11/07 01:53:55;;;;;;;;;46.00;34.00;;;;;7.79;100.00;99478.00;6275411;20;3621121;-50
2023/11/07 01:56:26;;;;;;;;;42.67;36.33;;;;;7.87;100.00;99479.34;6307385;20;3608630;-47
2023/11/07 01:58:59;;;;;;;;;42.67;33.67;;;;;8.22;100.00;99465.00;6275660;20;3613838;-48
2023/11/07 02:01:32;;;;;;;;;63.33;50.00;;;;;8.25;100.00;99476.38;6306981;20;3619013;-48
2023/11/07 02:04:04;;;;;;;;;41.00;33.33;;;;;8.16;100.00;99471.53;6312098;20;3601677;-39
2023/11/07 02:06:34;;;;;;;;;62.33;52.00;;;;;8.43;100.00;99484.38;6275678;20;3618092;-47
2023/11/07 02:09:06;;;;;;;;;36.33;34.00;;;;;8.33;100.00;99478.63;6309750;20;3582586;-51
2023/11/07 02:11:36;;;;;;;;;35.00;30.33;;;;;8.33;100.00;99481.31;6273559;20;2856637;-51
2023/11/07 02:14:05;;;;;;;;;29.67;28.67;;;;;8.45;100.00;99488.69;6311274;20;3593002;-54
2023/11/07 02:16:33;;;;;;;;;34.50;28.50;;;;;8.42;100.00;99488.84;6272724;20;2506573;-52
2023/11/07 02:19:03;;;;;;;;;39.00;29.67;;;;;8.32;100.00;99482.22;6277073;20;3622257;-49
2023/11/07 02:21:32;;;;;;;;;40.00;35.00;;;;;8.11;100.00;99487.84;6310529;20;3604505;-49
2023/11/07 02:24:02;;;;;;;;;37.33;35.67;;;;;7.96;100.00;99480.66;6274972;20;3608561;-48
2023/11/07 02:26:31;;;;;;;;;42.33;36.00;;;;;7.55;100.00;99475.69;6312050;20;3603356;-42
2023/11/07 02:29:01;;;;;;;;;42.33;37.00;;;;;7.66;100.00;99478.69;6277491;20;3622308;-44
2023/11/07 02:31:30;;;;;;;;;26.50;23.50;;;;;7.59;100.00;99477.28;6310939;20;2500259;-48
2023/11/07 02:34:05;;;;;;;;;45.00;37.67;;;;;7.86;100.00;99482.09;6283976;20;2868217;-39
2023/11/07 02:36:38;;;;;;;;;38.33;35.00;;;;;8.17;100.00;99488.47;6314435;20;3602453;-44
2023/11/07 02:39:12;;;;;;;;;43.67;36.33;;;;;7.66;100.00;99478.69;6280107;20;2863844;-38
2023/11/07 02:41:44;;;;;;;;;32.00;30.67;;;;;7.65;100.00;99489.44;6315458;20;3584784;-38
2023/11/07 02:44:15;;;;;;;;;43.00;34.00;;;;;7.78;100.00;99493.19;6316405;20;3607580;-43
2023/11/07 02:46:47;;;;;;;;;34.33;29.67;;;;;8.22;100.00;99486.41;6278985;20;2863990;-44
2023/11/07 02:49:16;;;;;;;;;44.00;35.33;;;;;7.94;100.00;99487.88;6308350;20;3623291;-44
2023/11/07 02:51:46;;;;;;;;;37.33;33.33;;;;;7.45;100.00;99487.81;6275857;20;2849496;-49
2023/11/07 02:54:14;;;;;;;;;39.67;34.00;;;;;7.44;100.00;99500.31;6311786;20;3601331;-51
2023/11/07 02:56:44;;;;;;;;;35.33;34.67;;;;;7.40;100.00;99503.22;6280780;20;2856548;-52
2023/11/07 02:59:13;;;;;;;;;41.67;34.00;;;;;7.37;100.00;99509.59;6310846;20;3612916;-42
2023/11/07 03:01:42;;;;;;;;;34.67;30.00;;;;;7.34;100.00;99508.88;6280556;20;2858638;-44
2023/11/07 03:04:13;;;;;;;;;40.00;32.33;;;;;7.59;100.00;99508.47;6312726;20;3615888;-43
2023/11/07 03:06:43;;;;;;;;;31.33;27.33;;;;;7.52;100.00;99510.59;6314247;20;3585671;-43
2023/11/07 03:09:13;;;;;;;;;30.33;30.00;;;;;7.44;100.00;99512.78;6313093;20;3604413;-46
2023/11/07 03:11:42;;;;;;;;;35.00;30.67;;;;;7.43;100.00;99514.59;6313317;20;3602331;-39
2023/11/07 03:14:10;;;;;;;;;29.50;24.50;;;;;7.26;100.00;99515.44;6279907;20;2500254;-41
2023/11/07 03:16:41;;;;;;;;;42.33;36.33;;;;;7.58;100.00;99522.75;6284860;20;2856579;-39
2023/11/07 03:19:11;;;;;;;;;33.33;30.00;;;;;7.30;100.00;99528.69;6313198;20;2851387;-44
2023/11/07 03:21:40;;;;;;;;;33.00;27.33;;;;;7.13;100.00;99519.69;6311083;20;2856971;-50
2023/11/07 03:24:10;;;;;;;;;30.67;27.67;;;;;7.52;100.00;99523.94;6315677;20;2864933;-50
2023/11/07 03:26:39;;;;;;;;;28.00;24.00;;;;;7.05;100.00;99519.22;6313955;20;2730496;-50
2023/11/07 03:29:08;;;;;;;;;26.50;23.00;;;;;7.26;100.00;99520.78;6313235;20;2847163;-49
2023/11/07 03:31:37;;;;;;;;;29.50;24.50;;;;;6.99;100.00;99519.53;6280749;20;2847212;-52
2023/11/07 03:34:06;;;;;;;;;27.50;26.00;;;;;6.57;100.00;99516.19;6279178;20;2841013;-53
2023/11/07 03:36:35;;;;;;;;;27.00;27.00;;;;;6.47;100.00;99516.72;6280728;20;2844172;-52
2023/11/07 03:39:06;;;;;;;;;38.33;31.00;;;;;6.46;100.00;99523.00;6282046;20;3619042;-51
2023/11/07 03:41:41;;;;;;;;;36.67;33.67;;;;;6.68;100.00;99523.69;6313900;20;2866057;-47
2023/11/07 03:44:11;;;;;;;;;34.33;32.67;;;;;6.43;100.00;99526.66;6312854;20;2851462;-47
2023/11/07 03:46:42;;;;;;;;;36.67;32.00;;;;;6.45;100.00;99524.81;6312958;20;2867048;-39
2023/11/07 03:49:13;;;;;;;;;40.33;35.33;;;;;6.67;100.00;99529.09;6314144;20;3608557;-38
2023/11/07 03:51:42;;;;;;;;;37.67;31.67;;;;;6.73;100.00;99535.00;6310365;20;3601741;-38
2023/11/07 03:54:12;;;;;;;;;33.67;28.67;;;;;6.91;100.00;99537.72;6286323;20;2861699;-48
2023/11/07 03:56:40;;;;;;;;;26.00;25.50;;;;;6.67;100.00;99529.97;6309388;20;2500380;-46
2023/11/07 03:59:09;;;;;;;;;18.67;17.67;;;;;6.66;100.00;99533.59;6277783;20;3560882;-47
2023/11/07 04:01:39;;;;;;;;;39.67;35.00;;;;;6.46;100.00;99531.00;6311712;20;2841101;-49
2023/11/07 04:04:08;;;;;;;;;29.00;28.33;;;;;6.69;100.00;99528.09;6313350;20;3585193;-51
2023/11/07 04:06:37;;;;;;;;;40.00;34.00;;;;;6.37;100.00;99533.16;6311853;20;3602401;-46
2023/11/07 04:09:07;;;;;;;;;35.67;33.00;;;;;6.29;100.00;99532.66;6282461;20;2863947;-46
2023/11/07 04:11:36;;;;;;;;;36.00;34.00;;;;;6.55;100.00;99530.53;6311244;20;3592055;-46
2023/11/07 04:14:06;;;;;;;;;61.33;47.67;;;;;6.84;100.00;99523.81;6277511;20;2879649;-43
2023/11/07 04:16:36;;;;;;;;;73.33;53.67;;;;;6.60;100.00;99523.19;6313463;20;3639861;-47
2023/11/07 04:19:05;;;;;;;;;59.67;48.33;;;;;6.34;100.00;99524.41;6311107;20;2871254;-46
2023/11/07 04:21:36;;;;;;;;;70.00;49.67;;;;;5.97;100.00;99535.91;6309742;20;3651315;-48
2023/11/07 04:24:06;;;;;;;;;62.00;45.33;;;;;6.71;100.00;99531.53;6312971;20;3630888;-47
2023/11/07 04:26:36;;;;;;;;;60.67;44.67;;;;;6.44;100.00;99530.19;6308152;20;2877696;-43
2023/11/07 04:29:06;;;;;;;;;58.00;45.67;;;;;6.46;100.00;99531.84;6310510;20;3614976;-47
2023/11/07 04:31:38;;;;;;;;;50.00;41.50;;;;;6.64;100.00;99540.78;6309507;20;2850428;-47
2023/11/07 04:34:09;;;;;;;;;40.00;36.00;;;;;6.65;100.00;99546.97;6278941;20;2861707;-48
2023/11/07 04:36:39;;;;;;;;;42.00;35.50;;;;;6.84;100.00;99533.63;6282008;20;2857570;-51
2023/11/07 04:39:12;;;;;;;;;44.67;35.00;;;;;6.78;100.00;99535.63;6280745;20;2869060;-49
2023/11/07 04:41:41;;;;;;;;;40.67;36.33;;;;;6.77;100.00;99525.06;6309104;20;3598183;-47
2023/11/07 04:44:11;;;;;;;;;37.00;34.00;;;;;6.69;100.00;99533.44;6278776;20;2843211;-47
2023/11/07 04:46:42;;;;;;;;;38.33;34.33;;;;;6.85;100.00;99530.88;6280457;20;2869121;-48
2023/11/07 04:49:13;;;;;;;;;50.50;42.00;;;;;5.80;100.00;99526.00;6314036;20;2869016;-42
2023/11/07 04:51:43;;;;;;;;;49.33;38.00;;;;;6.25;100.00;99525.72;6278066;20;2885904;-44
2023/11/07 04:54:12;;;;;;;;;42.67;39.00;;;;;6.23;100.00;99540.91;6318093;20;3615982;-43
2023/11/07 04:56:41;;;;;;;;;55.50;45.50;;;;;6.44;100.00;99528.38;6279449;20;2852442;-39
2023/11/07 04:59:10;;;;;;;;;51.50;40.00;;;;;6.16;100.00;99534.13;6280526;20;2861765;-39
2023/11/07 05:01:45;;;;;;;;;54.00;42.00;;;;;6.28;100.00;99525.56;6275088;20;2866013;-47
2023/11/07 05:04:14;;;;;;;;;56.50;45.00;;;;;6.72;100.00;99530.63;6280499;20;2848238;-47
2023/11/07 05:06:43;;;;;;;;;62.50;48.00;;;;;6.79;100.00;99529.38;6279243;20;2881527;-44
2023/11/07 05:09:14;;;;;;;;;70.33;53.00;;;;;6.46;100.00;99523.00;6279733;20;3646207;-42
2023/11/07 05:11:44;;;;;;;;;94.50;87.00;;;;;6.45;100.00;99524.81;6310364;20;3655594;-46
2023/11/07 05:14:14;;;;;;;;;130.00;114.33;;;;;6.51;100.00;99534.31;6309906;20;3729429;-44
2023/11/07 05:16:44;;;;;;;;;100.33;85.33;;;;;6.52;100.00;99530.69;6276904;20;3676375;-50
2023/11/07 05:19:16;;;;;;;;;100.00;89.67;;;;;6.11;100.00;99531.69;6275225;20;3673265;-50
2023/11/07 05:21:45;;;;;;;;;89.50;71.00;;;;;5.94;100.00;99536.91;6277286;20;1941931;-47
2023/11/07 05:24:15;;;;;;;;;89.00;64.75;;;;;6.15;100.00;99537.75;6278511;20;3649236;-48
2023/11/07 05:26:45;;;;;;;;;74.33;53.67;;;;;6.08;100.00;99536.28;6311422;20;3651532;-50
2023/11/07 05:29:16;;;;;;;;;69.67;53.00;;;;;6.09;100.00;99538.03;6311809;20;3638813;-49
2023/11/07 05:31:46;;;;;;;;;64.67;51.00;;;;;6.26;100.00;99538.09;6307144;20;2878553;-47
2023/11/07 05:34:16;;;;;;;;;63.33;51.67;;;;;6.65;100.00;99542.50;6309082;20;3626540;-46
2023/11/07 05:36:46;;;;;;;;;67.00;51.00;;;;;6.50;100.00;99543.22;6309925;20;3637893;-44
2023/11/07 05:39:15;;;;;;;;;65.00;51.00;;;;;6.60;100.00;99539.19;6308962;20;2863817;-47
2023/11/07 05:41:45;;;;;;;;;74.00;55.00;;;;;5.44;100.00;99546.16;6275026;20;3657775;-50
2023/11/07 05:44:15;;;;;;;;;76.33;56.67;;;;;5.24;100.00;99559.47;6275292;20;3638939;-39
2023/11/07 05:46:45;;;;;;;;;73.67;53.33;;;;;5.54;100.00;99567.09;6311378;20;3639941;-38
2023/11/07 05:49:15;;;;;;;;;64.00;49.33;;;;;5.31;100.00;99571.56;6308911;20;3624216;-38
2023/11/07 05:51:45;;;;;;;;;67.67;51.00;;;;;5.73;100.00;99574.19;6305242;20;3640988;-40
2023/11/07 05:54:15;;;;;;;;;70.67;53.00;;;;;5.96;100.00;99577.69;6310575;20;3638880;-39
2023/11/07 05:56:44;;;;;;;;;75.00;53.00;;;;;6.37;100.00;99581.16;6309743;20;3648261;-40
2023/11/07 05:59:14;;;;;;;;;62.67;45.33;;;;;6.59;100.00;99581.00;6310216;20;3627430;-39
2023/11/07 06:01:44;;;;;;;;;68.67;51.00;;;;;6.49;100.00;99577.03;6308623;20;3638888;-39
2023/11/07 06:04:34;;;;;;;;;78.00;56.33;;;;;6.65;100.00;99589.66;6313137;20;3649286;-40
2023/11/07 06:07:04;;;;;;;;;83.33;64.33;;;;;5.84;100.00;99591.50;6312781;20;3639843;-49
2023/11/07 06:09:33;;;;;;;;;68.33;49.33;;;;;5.60;100.00;99593.44;6316257;20;3634718;-39
2023/11/07 06:12:04;;;;;;;;;66.67;49.67;;;;;5.91;100.00;99599.16;6311988;20;3639926;-43
2023/11/07 06:14:34;;;;;;;;;70.33;56.33;;;;;5.71;100.00;99592.06;6315610;20;2877505;-48
2023/11/07 06:17:04;;;;;;;;;79.33;59.67;;;;;5.66;100.00;99598.50;6315453;20;3656509;-45
2023/11/07 06:19:34;;;;;;;;;63.67;50.00;;;;;6.68;100.00;99595.72;6283306;20;2872264;-44
2023/11/07 06:22:03;;;;;;;;;63.00;48.00;;;;;6.63;100.00;99603.06;6312630;20;3614851;-49
2023/11/07 06:24:32;;;;;;;;;43.00;38.00;;;;;6.70;100.00;99604.50;6317918;20;3603569;-48
2023/11/07 06:27:01;;;;;;;;;53.00;40.50;;;;;7.40;100.00;99599.38;6284167;20;2864851;-48
2023/11/07 06:29:30;;;;;;;;;50.50;41.00;;;;;7.19;100.00;99601.31;6284583;20;2866928;-48
2023/11/07 06:32:00;;;;;;;;;54.00;41.67;;;;;8.87;100.00;99596.94;6281865;20;2868093;-46
2023/11/07 06:34:29;;;;;;;;;51.00;44.00;;;;;9.23;100.00;99604.72;6313142;20;2852445;-47
2023/11/07 06:36:58;;;;;;;;;50.67;41.33;;;;;9.27;99.10;99597.38;6281384;20;2870210;-46
2023/11/07 06:39:27;;;;;;;;;33.67;28.00;;;;;10.77;93.95;99595.47;6315641;20;3604631;-49
2023/11/07 06:41:58;;;;;;;;;38.00;32.00;;;;;12.34;85.45;99607.38;6282314;20;2863088;-47
2023/11/07 06:44:28;;;;;;;;;23.33;20.67;;;;;12.57;84.48;99608.44;6317095;20;3581612;-47
2023/11/07 06:46:56;;;;;;;;;21.50;20.50;;;;;11.26;89.06;99610.22;6312967;20;2500514;-48
2023/11/07 06:49:26;;;;;;;;;25.00;23.00;;;;;10.98;92.93;99612.88;6283225;20;2849352;-48
2023/11/07 06:51:55;;;;;;;;;27.67;23.33;;;;;10.44;96.75;99614.56;6312862;20;2848188;-39
2023/11/07 06:54:24;;;;;;;;;27.00;26.00;;;;;10.60;94.05;99615.31;6313516;20;2860686;-38
2023/11/07 06:56:53;;;;;;;;;24.00;22.50;;;;;11.59;92.12;99615.19;6281393;20;2846176;-48
2023/11/07 06:59:22;;;;;;;;;29.00;29.00;;;;;11.33;89.07;99625.00;6279975;20;2843098;-49
2023/11/07 07:01:52;;;;;;;;;38.00;32.33;;;;;11.44;90.43;99627.81;6281526;20;3615906;-51
2023/11/07 07:04:21;;;;;;;;;37.67;33.67;;;;;15.76;66.20;99631.53;6315409;20;2853469;-45
2023/11/07 07:06:50;;;;;;;;;43.00;36.33;;;;;16.06;60.41;99633.53;6320107;20;3596093;-47
2023/11/07 07:09:20;;;;;;;;;43.00;33.67;;;;;17.15;55.53;99650.28;6281613;20;3619042;-47
2023/11/07 07:11:51;;;;;;;;;42.33;35.33;;;;;14.86;60.37;99645.22;6314221;20;3615907;-39
2023/11/07 07:14:20;;;;;;;;;55.00;46.00;;;;;9.27;92.88;99634.88;6282717;20;2845203;-49
2023/11/07 07:16:50;;;;;;;;;61.00;47.33;;;;;8.31;100.00;99633.00;6283177;20;3622583;-51
2023/11/07 07:19:19;;;;;;;;;64.00;51.00;;;;;8.25;100.00;99636.00;6315247;20;3627404;-44
2023/11/07 07:21:53;;;;;;;;;45.00;38.00;;;;;7.99;100.00;99643.56;6310425;20;2847144;-46
2023/11/07 07:24:27;;;;;;;;;43.33;37.67;;;;;8.70;100.00;99647.88;6285060;20;2872231;-43
2023/11/07 07:26:58;;;;;;;;;38.33;35.33;;;;;8.92;100.00;99642.22;6311835;20;3611832;-46
2023/11/07 07:29:27;;;;;;;;;38.67;32.67;;;;;10.03;100.00;99650.09;6315780;20;3594037;-49
2023/11/07 07:31:59;;;;;;;;;39.00;33.00;;;;;10.24;100.00;99650.63;6280369;20;2853525;-46
2023/11/07 07:34:28;;;;;;;;;29.33;28.67;;;;;10.07;100.00;99638.25;6312008;20;3575449;-45
2023/11/07 07:36:57;;;;;;;;;37.50;33.00;;;;;9.91;100.00;99638.28;6277630;20;2860735;-43
2023/11/07 07:39:29;;;;;;;;;40.33;35.33;;;;;10.19;100.00;99648.25;6283942;20;3595023;-47
2023/11/07 07:42:09;;;;;;;;;38.33;33.00;;;;;10.71;100.00;99650.41;6277308;20;3595056;-44
2023/11/07 07:44:41;;;;;;;;;35.33;32.00;;;;;9.86;100.00;99651.97;6315890;20;3608739;-42
2023/11/07 07:47:11;;;;;;;;;31.00;29.00;;;;;10.49;100.00;99655.41;6283558;20;2852478;-43
2023/11/07 07:49:41;;;;;;;;;33.33;30.33;;;;;10.32;100.00;99659.97;6312975;20;3595241;-48
2023/11/07 07:52:10;;;;;;;;;29.00;27.50;;;;;10.28;100.00;99653.06;6278212;20;2844085;-39
2023/11/07 07:54:39;;;;;;;;;33.00;29.00;;;;;9.63;100.00;99649.78;6281921;20;2834694;-43
2023/11/07 07:57:28;;;;;;;;;35.67;32.67;;;;;9.91;100.00;99654.38;6283038;20;3610691;-37
2023/11/07 07:59:58;;;;;;;;;19.00;12.33;;;;;10.33;100.00;99647.41;6282643;20;3565880;-46
2023/11/07 08:02:27;;;;;;;;;38.33;33.33;;;;;10.54;100.00;99645.25;6311729;20;3600346;-48
2023/11/07 08:04:58;;;;;;;;;33.33;30.00;;;;;10.95;100.00;99644.44;6276979;20;2851354;-48
2023/11/07 08:07:27;;;;;;;;;30.67;29.67;;;;;11.75;100.00;99650.84;6315851;20;3594321;-48
2023/11/07 08:09:56;;;;;;;;;29.00;25.67;;;;;11.20;100.00;99646.41;6285289;20;3589919;-45
2023/11/07 08:12:26;;;;;;;;;31.67;26.00;;;;;11.03;100.00;99652.00;6278531;20;2859757;-39
2023/11/07 08:14:56;;;;;;;;;31.33;29.33;;;;;11.42;100.00;99651.25;6317776;20;3603408;-45
2023/11/07 08:17:25;;;;;;;;;28.33;26.33;;;;;11.74;100.00;99653.63;6284831;20;2858702;-40
2023/11/07 08:19:55;;;;;;;;;29.33;27.00;;;;;11.60;100.00;99655.41;6317747;20;3602362;-43
2023/11/07 08:22:25;;;;;;;;;28.67;27.67;;;;;12.15;100.00;99650.00;6284008;20;3604463;-46
2023/11/07 08:24:55;;;;;;;;;30.00;23.67;;;;;12.12;100.00;99658.28;6284824;20;3589837;-47
2023/11/07 08:27:25;;;;;;;;;27.00;27.00;;;;;12.26;100.00;99660.88;6313442;20;3589962;-48
2023/11/07 08:29:57;;;;;;;;;32.67;27.67;;;;;12.57;100.00;99666.84;6285267;20;3599335;-39
2023/11/07 08:32:29;;;;;;;;;39.67;34.33;;;;;12.25;100.00;99662.72;6286009;20;3604420;-43
2023/11/07 08:34:59;;;;;;;;;34.00;30.33;;;;;11.85;100.00;99656.47;6280909;20;2862893;-40
2023/11/07 08:37:29;;;;;;;;;32.67;30.00;;;;;11.86;100.00;99656.41;6315788;20;3589894;-46
2023/11/07 08:40:00;;;;;;;;;20.50;18.50;;;;;11.70;100.00;99660.19;6282461;20;2846247;-44
2023/11/07 08:42:30;;;;;;;;;32.00;28.00;;;;;12.18;99.97;99655.19;6281839;20;2859756;-45
2023/11/07 08:44:59;;;;;;;;;29.67;29.67;;;;;11.52;100.00;99657.75;6318647;20;3578561;-46
2023/11/07 08:47:29;;;;;;;;;32.33;29.00;;;;;10.76;100.00;99675.16;6285482;20;3580513;-44
2023/11/07 08:49:59;;;;;;;;;27.00;27.00;;;;;11.43;100.00;99669.13;6282773;20;2851611;-44
2023/11/07 08:52:29;;;;;;;;;22.00;21.33;;;;;11.47;100.00;99670.63;6311409;20;2845135;-46
2023/11/07 08:55:01;;;;;;;;;32.67;28.00;;;;;12.50;100.00;99672.63;6317988;20;3598260;-43
2023/11/07 08:57:31;;;;;;;;;26.67;25.67;;;;;12.79;98.25;99674.25;6282654;20;3595077;-38
2023/11/07 09:00:01;;;;;;;;;27.00;27.00;;;;;13.13;97.42;99680.78;6280886;20;3596205;-38
2023/11/07 09:02:30;;;;;;;;;30.00;26.00;;;;;12.94;96.94;99682.13;6315617;20;3599280;-45
2023/11/07 09:04:59;;;;;;;;;48.67;41.33;;;;;13.16;96.72;99670.66;6286697;20;3576374;-43
2023/11/07 09:07:34;;;;;;;;;34.67;32.67;;;;;12.94;99.09;99668.63;6280416;20;2862898;-48
2023/11/07 09:10:06;;;;;;;;;237.75;216.00;;;;;12.62;100.00;99665.53;6315914;20;4512740;-41
2023/11/07 09:12:35;;;;;;;;;43.00;36.67;;;;;13.25;97.76;99663.72;6278095;20;3601703;-39
2023/11/07 09:15:06;;;;;;;;;26.50;22.50;;;;;12.35;100.00;99654.88;6282120;20;2860847;-50
2023/11/07 09:17:40;;;;;;;;;63.00;47.33;;;;;13.17;98.78;99661.59;6280207;20;3642957;-47
2023/11/07 09:20:13;;;;;;;;;47.67;40.00;;;;;13.74;96.31;99672.75;6281927;20;3596135;-38
2023/11/07 09:22:44;;;;;;;;;54.67;44.67;;;;;13.85;95.56;99672.81;6312080;20;3601334;-50
2023/11/07 09:25:13;;;;;;;;;25.33;24.00;;;;;13.71;96.82;99667.59;6281152;20;3584712;-46
2023/11/07 09:27:43;;;;;;;;;21.33;20.00;;;;;14.00;95.22;99674.34;6277398;20;2844150;-47
2023/11/07 09:30:13;;;;;;;;;23.00;22.00;;;;;14.11;93.45;99668.13;6312826;20;3585674;-47
2023/11/07 09:32:43;;;;;;;;;21.00;20.33;;;;;14.06;94.25;99673.03;6279473;20;3581488;-48
2023/11/07 09:35:13;;;;;;;;;25.50;25.50;;;;;14.15;94.01;99675.00;6279530;20;2841963;-40
2023/11/07 09:37:42;;;;;;;;;24.50;20.00;;;;;14.03;93.70;99671.44;6284939;20;2833611;-40
2023/11/07 09:40:17;;;;;;;;;20.67;20.67;;;;;13.83;95.09;99680.16;6291372;20;3583649;-46
2023/11/07 09:42:54;;;;;;;;;24.67;23.00;;;;;14.06;95.16;99681.13;6288199;20;3596085;-39
2023/11/07 09:45:23;;;;;;;;;26.33;21.00;;;;;13.66;95.23;99681.41;6287897;20;3595138;-45
2023/11/07 09:47:56;;;;;;;;;25.33;23.33;;;;;13.47;96.58;99679.22;6285410;20;3592991;-51
2023/11/07 09:50:25;;;;;;;;;29.00;28.33;;;;;12.59;99.91;99681.94;6320835;20;3593173;-44
2023/11/07 09:52:54;;;;;;;;;35.00;30.33;;;;;12.38;100.00;99673.50;6289406;20;3597205;-44
2023/11/07 09:55:28;;;;;;;;;31.67;30.67;;;;;12.62;100.00;99664.69;6291767;20;3603364;-39
2023/11/07 09:58:14;;;;;;;;;26.33;23.33;;;;;12.72;99.49;99672.00;6284728;20;2849331;-47
2023/11/07 10:00:48;;;;;;;;;32.00;25.25;;;;;12.63;99.77;99658.31;6318390;20;3617997;-51
2023/11/07 10:03:18;;;;;;;;;31.75;26.50;;;;;12.71;100.00;99666.72;6320479;20;3615980;-39
2023/11/07 10:05:50;;;;;;;;;27.00;25.00;;;;;12.59;99.97;99656.84;6318317;20;3594006;-40
2023/11/07 10:08:24;;;;;;;;;18.50;13.50;;;;;12.82;99.29;99656.06;6317664;20;2492013;-44
2023/11/07 10:11:22;;;;;;;;;31.33;27.67;;;;;12.76;100.00;99656.47;6290039;20;3602479;-51
2023/11/07 10:14:03;;;;;;;;;31.33;28.33;;;;;13.08;98.60;99650.59;6284735;20;3613835;-48
2023/11/07 10:16:41;;;;;;;;;27.00;27.00;;;;;12.95;99.19;99645.25;6285958;20;3587866;-50
2023/11/07 10:19:16;;;;;;;;;36.00;31.33;;;;;12.87;99.46;99645.78;6287022;20;3604450;-46
2023/11/07 10:21:46;;;;;;;;;24.67;24.67;;;;;12.80;100.00;99641.84;6281617;20;3598173;-44
2023/11/07 10:24:16;;;;;;;;;34.00;28.67;;;;;13.08;99.58;99639.81;6319457;20;3599282;-39
2023/11/07 10:27:00;;;;;;;;;35.67;30.67;;;;;12.05;100.00;99642.53;6288786;20;3596089;-48
2023/11/07 10:29:34;;;;;;;;;38.33;31.33;;;;;12.56;100.00;99643.56;6288479;20;3595112;-47
2023/11/07 10:32:12;;;;;;;;;32.67;30.00;;;;;12.57;100.00;99642.59;6284558;20;3591024;-44
2023/11/07 10:34:41;;;;;;;;;36.00;33.33;;;;;12.47;100.00;99642.38;6314661;20;3587858;-43
2023/11/07 10:37:11;;;;;;;;;42.67;36.33;;;;;12.55;100.00;99642.69;6286787;20;3606562;-47
2023/11/07 10:39:40;;;;;;;;;37.00;33.67;;;;;12.75;100.00;99644.00;6320580;20;3600285;-48
2023/11/07 10:42:19;;;;;;;;;37.00;33.00;;;;;13.03;100.00;99637.47;6283203;20;2861849;-46
2023/11/07 10:45:03;;;;;;;;;50.33;40.67;;;;;12.88;100.00;99644.84;6314535;20;2854658;-44
2023/11/07 10:47:37;;;;;;;;;46.00;39.00;;;;;12.60;100.00;99645.06;6317217;20;2843037;-44
2023/11/07 10:50:08;;;;;;;;;48.00;40.33;;;;;11.50;100.00;99642.69;6317063;20;3585679;-48
2023/11/07 10:52:38;;;;;;;;;43.00;33.00;;;;;11.82;100.00;99635.16;6281430;20;3623265;-46
2023/11/07 10:55:07;;;;;;;;;50.67;39.67;;;;;11.67;100.00;99645.13;6315664;20;3607626;-43
2023/11/07 10:57:39;;;;;;;;;43.00;37.50;;;;;11.72;100.00;99644.81;6284026;20;2844072;-40
2023/11/07 11:00:20;;;;;;;;;44.00;37.50;;;;;12.10;100.00;99646.75;6284647;20;2865076;-40
2023/11/07 11:02:53;;;;;;;;;37.67;34.00;;;;;12.00;100.00;99630.38;6281752;20;2855766;-52
2023/11/07 11:05:24;;;;;;;;;79.00;64.33;;;;;11.34;100.00;99629.38;6316096;20;3659629;-54
2023/11/07 11:08:02;;;;;;;;;47.33;41.00;;;;;11.65;100.00;99631.75;6315222;20;2850413;-54
2023/11/07 11:10:34;;;;;;;;;41.67;37.00;;;;;11.74;100.00;99643.75;6317670;20;3612259;-52
2023/11/07 11:13:05;;;;;;;;;64.00;51.00;;;;;12.57;100.00;99634.53;6284130;20;2863840;-47
2023/11/07 11:15:37;;;;;;;;;140.00;125.00;;;;;11.53;100.00;99637.09;6305855;20;3742288;-51